createdAt,value
2024-03-02T00:00:28.431Z,99113.72
2024-03-02T00:01:32.529Z,99113.72
2024-03-02T00:02:44.004Z,99115.44
2024-03-02T00:03:47.682Z,99124.03
2024-03-02T00:04:51.058Z,99113.44
2024-03-02T00:05:54.346Z,99113.25
2024-03-02T00:06:57.700Z,99116.19
2024-03-02T00:08:01.491Z,99111.72
2024-03-02T00:09:05.740Z,99112.53
2024-03-02T00:10:15.631Z,99107.34
2024-03-02T00:11:20.211Z,99105.06
2024-03-02T00:12:24.603Z,99110.69
2024-03-02T00:13:28.177Z,99104.34
2024-03-02T00:14:31.581Z,99106.53
2024-03-02T00:15:52.903Z,99107.19
2024-03-02T00:16:58.266Z,99101.63
2024-03-02T00:18:02.669Z,99108.59
2024-03-02T00:19:10.593Z,99109.41
2024-03-02T00:20:22.987Z,99108.25
2024-03-02T00:21:31.924Z,99107.41
2024-03-02T00:22:38.586Z,99109.41
2024-03-02T00:23:42.743Z,99103.22
2024-03-02T00:24:47.295Z,99105.00
2024-03-02T00:25:56.560Z,99102.88
2024-03-02T00:27:00.013Z,99110.25
2024-03-02T00:28:08.852Z,99101.25
2024-03-02T00:29:14.744Z,99107.53
2024-03-02T00:30:52.343Z,99108.72
2024-03-02T00:31:58.258Z,99102.66
2024-03-02T00:33:02.587Z,99104.44
2024-03-02T00:34:12.846Z,99104.00
2024-03-02T00:35:16.357Z,99105.78
2024-03-02T00:36:26.365Z,99105.78
2024-03-02T00:37:30.972Z,99100.78
2024-03-02T00:38:35.837Z,99095.59
2024-03-02T00:39:39.554Z,99097.41
2024-03-02T00:40:46.234Z,99097.41
2024-03-02T00:41:59.329Z,99092.22
2024-03-02T00:43:04.739Z,99096.16
2024-03-02T00:44:14.180Z,99094.34
2024-03-02T00:45:18.233Z,99102.50
2024-03-02T00:46:21.619Z,99101.53
2024-03-02T00:47:25.590Z,99096.16
2024-03-02T00:48:29.633Z,99094.19
2024-03-02T00:49:32.860Z,99100.28
2024-03-02T00:50:36.260Z,99093.06
2024-03-02T00:51:40.878Z,99088.88
2024-03-02T00:52:44.994Z,99099.47
2024-03-02T00:53:49.252Z,99093.66
2024-03-02T00:54:53.432Z,99091.00
2024-03-02T00:55:57.078Z,99084.56
2024-03-02T00:57:03.260Z,99078.41
2024-03-02T00:58:06.340Z,99082.97
2024-03-02T00:59:12.337Z,99076.16
2024-03-02T01:00:20.145Z,99083.75
2024-03-02T01:01:24.533Z,99075.56
2024-03-02T01:02:33.582Z,99066.91
2024-03-02T01:03:38.537Z,99076.34
2024-03-02T01:04:42.761Z,99072.50
2024-03-02T01:05:46.971Z,99075.91
2024-03-02T01:06:50.886Z,99075.75
2024-03-02T01:07:56.348Z,99074.91
2024-03-02T01:09:01.848Z,99077.50
2024-03-02T01:10:05.433Z,99074.69
2024-03-02T01:11:09.401Z,99072.50
2024-03-02T01:12:17.210Z,99065.13
2024-03-02T01:13:20.266Z,99067.53
2024-03-02T01:14:24.124Z,99064.94
2024-03-02T01:15:27.389Z,99066.97
2024-03-02T01:16:31.017Z,99058.75
2024-03-02T01:17:34.381Z,99057.59
2024-03-02T01:18:41.186Z,99063.13
2024-03-02T01:19:45.639Z,99061.94
2024-03-02T01:20:50.955Z,99052.41
2024-03-02T01:21:54.356Z,99063.59
2024-03-02T01:23:00.450Z,99060.34
2024-03-02T01:24:04.946Z,99055.00
2024-03-02T01:25:10.330Z,99064.22
2024-03-02T01:26:13.994Z,99052.59
2024-03-02T01:27:17.128Z,99055.91
2024-03-02T01:28:23.045Z,99057.53
2024-03-02T01:29:32.666Z,99068.88
2024-03-02T01:30:36.402Z,99056.53
2024-03-02T01:31:43.402Z,99057.53
2024-03-02T01:32:46.801Z,99054.13
2024-03-02T01:33:50.764Z,99063.50
2024-03-02T01:34:57.547Z,99052.53
2024-03-02T01:36:03.239Z,99056.53
2024-03-02T01:37:06.750Z,99058.78
2024-03-02T01:38:13.301Z,99063.59
2024-03-02T01:39:17.155Z,99050.56
2024-03-02T01:40:28.232Z,99058.97
2024-03-02T01:41:33.029Z,99056.19
2024-03-02T01:42:42.983Z,99058.31
2024-03-02T01:43:46.396Z,99053.34
2024-03-02T01:44:50.533Z,99059.06
2024-03-02T01:45:56.359Z,99056.03
2024-03-02T01:46:59.786Z,99053.72
2024-03-02T01:48:03.042Z,99064.34
2024-03-02T01:49:07.805Z,99057.81
2024-03-02T01:50:14.604Z,99051.84
2024-03-02T01:51:17.742Z,99058.34
2024-03-02T01:52:21.723Z,99060.66
2024-03-02T01:53:25.679Z,99049.69
2024-03-02T01:54:28.728Z,99055.34
2024-03-02T01:55:32.326Z,99050.31
2024-03-02T01:56:35.561Z,99047.72
2024-03-02T01:57:39.290Z,99052.91
2024-03-02T01:58:44.736Z,99052.47
2024-03-02T01:59:54.544Z,99047.00
2024-03-02T02:01:01.853Z,99050.31
2024-03-02T02:02:06.764Z,99047.72
2024-03-02T02:03:13.717Z,99052.91
2024-03-02T02:04:16.821Z,99044.59
2024-03-02T02:05:19.925Z,99048.19
2024-03-02T02:06:29.076Z,99051.59
2024-03-02T02:07:34.347Z,99043.19
2024-03-02T02:08:49.752Z,99054.59
2024-03-02T02:09:53.199Z,99055.16
2024-03-02T02:10:56.579Z,99056.56
2024-03-02T02:12:00.763Z,99059.97
2024-03-02T02:13:04.460Z,99059.34
2024-03-02T02:14:08.514Z,99056.31
2024-03-02T02:15:34.308Z,99067.13
2024-03-02T02:16:38.104Z,99061.47
2024-03-02T02:17:45.429Z,99066.75
2024-03-02T02:18:48.638Z,99063.09
2024-03-02T02:19:52.351Z,99062.38
2024-03-02T02:20:55.897Z,99065.59
2024-03-02T02:22:00.591Z,99061.84
2024-03-02T02:23:14.173Z,99067.81
2024-03-02T02:24:17.560Z,99066.22
2024-03-02T02:25:20.981Z,99063.81
2024-03-02T02:26:24.185Z,99054.06
2024-03-02T02:27:27.595Z,99056.84
2024-03-02T02:28:34.539Z,99055.06
2024-03-02T02:29:38.185Z,99053.66
2024-03-02T02:30:41.449Z,99042.03
2024-03-02T02:31:47.331Z,99045.22
2024-03-02T02:32:50.999Z,99046.59
2024-03-02T02:33:54.710Z,99044.78
2024-03-02T02:34:58.251Z,99037.19
2024-03-02T02:36:01.545Z,99039.34
2024-03-02T02:37:05.351Z,99037.75
2024-03-02T02:38:08.813Z,99042.72
2024-03-02T02:39:18.138Z,99040.31
2024-03-02T02:40:22.977Z,99043.09
2024-03-02T02:41:26.338Z,99035.34
2024-03-02T02:42:30.127Z,99037.47
2024-03-02T02:43:33.553Z,99031.81
2024-03-02T02:44:36.805Z,99027.47
2024-03-02T02:45:40.112Z,99028.44
2024-03-02T02:46:45.323Z,99024.06
2024-03-02T02:47:49.986Z,99029.59
2024-03-02T02:48:55.566Z,99027.81
2024-03-02T02:49:58.700Z,99032.69
2024-03-02T02:51:04.669Z,99034.16
2024-03-02T02:52:07.878Z,99028.81
2024-03-02T02:53:14.150Z,99033.78
2024-03-02T02:54:17.934Z,99028.28
2024-03-02T02:55:21.402Z,99033.63
2024-03-02T02:56:26.208Z,99027.47
2024-03-02T02:57:31.503Z,99034.06
2024-03-02T02:58:34.957Z,99039.97
2024-03-02T02:59:39.541Z,99047.28
2024-03-02T03:00:44.784Z,99041.38
2024-03-02T03:01:49.628Z,99040.59
2024-03-02T03:02:56.588Z,99039.44
2024-03-02T03:04:02.745Z,99039.69
2024-03-02T03:05:12.087Z,99044.25
2024-03-02T03:06:16.820Z,99050.97
2024-03-02T03:07:21.535Z,99052.38
2024-03-02T03:08:26.572Z,99048.00
2024-03-02T03:09:30.353Z,99045.22
2024-03-02T03:10:35.744Z,99043.44
2024-03-02T03:11:39.602Z,99043.63
2024-03-02T03:12:45.213Z,99039.84
2024-03-02T03:13:50.558Z,99040.31
2024-03-02T03:14:54.760Z,99046.22
2024-03-02T03:15:58.876Z,99048.81
2024-03-02T03:17:04.539Z,99048.63
2024-03-02T03:18:09.434Z,99040.03
2024-03-02T03:19:12.720Z,99042.22
2024-03-02T03:20:17.029Z,99038.72
2024-03-02T03:21:20.975Z,99034.97
2024-03-02T03:22:25.400Z,99032.00
2024-03-02T03:23:31.552Z,99039.06
2024-03-02T03:24:34.798Z,99028.25
2024-03-02T03:25:38.310Z,99028.88
2024-03-02T03:26:41.370Z,99032.66
2024-03-02T03:27:44.768Z,99029.41
2024-03-02T03:28:49.458Z,99028.25
2024-03-02T03:29:53.650Z,99030.13
2024-03-02T03:30:57.684Z,99037.72
2024-03-02T03:32:00.998Z,99030.13
2024-03-02T03:33:04.643Z,99035.31
2024-03-02T03:34:15.453Z,99037.53
2024-03-02T03:35:20.536Z,99027.97
2024-03-02T03:36:24.729Z,99042.00
2024-03-02T03:37:35.825Z,99036.81
2024-03-02T03:38:40.605Z,99035.50
2024-03-02T03:39:44.258Z,99032.91
2024-03-02T03:40:47.442Z,99034.22
2024-03-02T03:41:50.796Z,99026.47
2024-03-02T03:42:59.773Z,99019.06
2024-03-02T03:44:05.956Z,99024.06
2024-03-02T03:45:09.703Z,99025.22
2024-03-02T03:46:13.499Z,99030.22
2024-03-02T03:47:16.926Z,99027.63
2024-03-02T03:48:25.480Z,99028.78
2024-03-02T03:49:28.614Z,99026.84
2024-03-02T03:50:36.060Z,99038.06
2024-03-02T03:51:39.756Z,99030.50
2024-03-02T03:52:42.987Z,99031.22
2024-03-02T03:53:46.885Z,99036.63
2024-03-02T03:54:51.504Z,99033.16
2024-03-02T03:55:58.673Z,99038.78
2024-03-02T03:57:02.623Z,99041.56
2024-03-02T03:58:06.757Z,99046.38
2024-03-02T03:59:11.515Z,99049.59
2024-03-02T04:00:16.998Z,99049.78
2024-03-02T04:01:25.586Z,99047.63
2024-03-02T04:02:29.025Z,99047.06
2024-03-02T04:03:35.269Z,99042.69
2024-03-02T04:04:39.264Z,99051.72
2024-03-02T04:05:45.518Z,99054.06
2024-03-02T04:06:48.928Z,99051.22
2024-03-02T04:07:52.823Z,99054.78
2024-03-02T04:08:59.908Z,99049.78
2024-03-02T04:10:05.695Z,99048.78
2024-03-02T04:11:09.414Z,99054.44
2024-03-02T04:12:16.527Z,99054.84
2024-03-02T04:13:20.035Z,99057.91
2024-03-02T04:14:24.936Z,99054.84
2024-03-02T04:15:28.629Z,99052.09
2024-03-02T04:16:31.696Z,99053.91
2024-03-02T04:17:37.863Z,99053.53
2024-03-02T04:18:41.103Z,99052.53
2024-03-02T04:19:45.663Z,99055.91
2024-03-02T04:20:50.392Z,99062.19
2024-03-02T04:21:55.127Z,99056.72
2024-03-02T04:23:01.007Z,99056.38
2024-03-02T04:24:04.570Z,99065.50
2024-03-02T04:25:11.612Z,99065.16
2024-03-02T04:26:16.181Z,99066.38
2024-03-02T04:27:20.075Z,99060.38
2024-03-02T04:28:23.600Z,99066.97
2024-03-02T04:29:27.207Z,99077.19
2024-03-02T04:30:33.615Z,99075.03
2024-03-02T04:31:37.489Z,99081.81
2024-03-02T04:32:47.273Z,99078.06
2024-03-02T04:33:51.030Z,99085.47
2024-03-02T04:34:55.885Z,99093.91
2024-03-02T04:35:59.620Z,99091.72
2024-03-02T04:37:02.874Z,99095.56
2024-03-02T04:38:06.100Z,99097.38
2024-03-02T04:39:11.116Z,99099.97
2024-03-02T04:40:16.702Z,99093.53
2024-03-02T04:41:20.585Z,99096.50
2024-03-02T04:42:27.316Z,99096.66
2024-03-02T04:43:30.814Z,99096.22
2024-03-02T04:44:34.210Z,99093.81
2024-03-02T04:45:40.007Z,99101.59
2024-03-02T04:46:43.301Z,99102.03
2024-03-02T04:47:49.376Z,99106.84
2024-03-02T04:48:57.158Z,99097.44
2024-03-02T04:50:02.527Z,99108.00
2024-03-02T04:51:05.631Z,99102.22
2024-03-02T04:52:08.932Z,99103.63
2024-03-02T04:53:12.361Z,99109.25
2024-03-02T04:54:16.495Z,99101.28
2024-03-02T04:55:28.623Z,99107.09
2024-03-02T04:56:33.614Z,99100.69
2024-03-02T04:57:37.361Z,99099.88
2024-03-02T04:58:41.074Z,99100.84
2024-03-02T04:59:47.567Z,99100.69
2024-03-02T05:00:51.695Z,99105.88
2024-03-02T05:01:54.891Z,99105.88
2024-03-02T05:03:00.380Z,99100.69
2024-03-02T05:04:04.074Z,99100.69
2024-03-02T05:05:07.770Z,99102.63
2024-03-02T05:06:11.153Z,99105.06
2024-03-02T05:07:14.991Z,99093.44
2024-03-02T05:08:20.955Z,99102.63
2024-03-02T05:09:24.336Z,99101.66
2024-03-02T05:10:28.517Z,99091.13
2024-03-02T05:12:10.136Z,99094.25
2024-03-02T05:13:16.610Z,99103.09
2024-03-02T05:14:20.004Z,99108.88
2024-03-02T05:15:28.062Z,99111.75
2024-03-02T05:16:38.031Z,99109.75
2024-03-02T05:17:46.588Z,99098.97
2024-03-02T05:18:49.931Z,99111.56
2024-03-02T05:19:53.082Z,99113.53
2024-03-02T05:20:56.436Z,99112.13
2024-03-02T05:21:59.613Z,99120.50
2024-03-02T05:23:04.893Z,99115.13
2024-03-02T05:24:08.261Z,99119.97
2024-03-02T05:25:12.319Z,99119.97
2024-03-02T05:26:20.189Z,99118.09
2024-03-02T05:27:23.840Z,99113.66
2024-03-02T05:28:27.100Z,99119.19
2024-03-02T05:29:30.631Z,99118.28
2024-03-02T05:30:34.006Z,99123.38
2024-03-02T05:31:37.502Z,99127.34
2024-03-02T05:32:40.699Z,99127.34
2024-03-02T05:33:47.699Z,99121.19
2024-03-02T05:34:52.005Z,99131.53
2024-03-02T05:35:55.658Z,99134.13
2024-03-02T05:37:00.722Z,99126.59
2024-03-02T05:38:05.877Z,99123.56
2024-03-02T05:39:10.281Z,99131.97
2024-03-02T05:40:17.576Z,99132.97
2024-03-02T05:41:22.218Z,99141.34
2024-03-02T05:42:25.662Z,99138.31
2024-03-02T05:43:29.849Z,99135.66
2024-03-02T05:44:33.515Z,99130.28
2024-03-02T05:45:37.004Z,99132.25
2024-03-02T05:46:41.481Z,99123.59
2024-03-02T05:47:49.888Z,99119.91
2024-03-02T05:48:53.346Z,99132.59
2024-03-02T05:49:56.470Z,99124.66
2024-03-02T05:50:59.567Z,99129.03
2024-03-02T05:52:04.658Z,99137.06
2024-03-02T05:53:09.909Z,99132.88
2024-03-02T05:54:15.636Z,99133.84
2024-03-02T05:55:19.541Z,99130.28
2024-03-02T05:56:22.629Z,99130.47
2024-03-02T05:57:46.178Z,99135.19
2024-03-02T05:58:51.820Z,99131.97
2024-03-02T05:59:55.530Z,99128.59
2024-03-02T06:00:59.865Z,99141.34
2024-03-02T06:02:04.182Z,99137.78
2024-03-02T06:03:07.469Z,99130.00
2024-03-02T06:04:12.474Z,99134.84
2024-03-02T06:05:17.251Z,99130.47
2024-03-02T06:06:20.893Z,99129.28
2024-03-02T06:07:24.371Z,99123.38
2024-03-02T06:08:30.469Z,99124.00
2024-03-02T06:09:33.859Z,99128.84
2024-03-02T06:10:37.700Z,99135.28
2024-03-02T06:11:43.495Z,99132.50
2024-03-02T06:12:47.868Z,99134.47
2024-03-02T06:13:51.065Z,99140.28
2024-03-02T06:14:54.227Z,99134.91
2024-03-02T06:15:58.223Z,99131.34
2024-03-02T06:17:04.636Z,99141.53
2024-03-02T06:18:09.178Z,99135.38
2024-03-02T06:19:13.663Z,99135.53
2024-03-02T06:20:17.074Z,99137.78
2024-03-02T06:21:20.267Z,99140.72
2024-03-02T06:22:26.221Z,99152.53
2024-03-02T06:23:34.710Z,99141.53
2024-03-02T06:24:41.784Z,99145.28
2024-03-02T06:25:44.993Z,99143.59
2024-03-02T06:26:48.320Z,99150.28
2024-03-02T06:27:51.531Z,99150.22
2024-03-02T06:28:55.016Z,99149.94
2024-03-02T06:30:50.891Z,99150.91
2024-03-02T06:31:55.292Z,99148.59
2024-03-02T06:33:05.206Z,99146.44
2024-03-02T06:34:09.930Z,99149.84
2024-03-02T06:35:13.871Z,99151.28
2024-03-02T06:36:18.529Z,99155.66
2024-03-02T06:37:22.033Z,99155.47
2024-03-02T06:38:30.170Z,99158.53
2024-03-02T06:39:35.421Z,99154.16
2024-03-02T06:40:42.034Z,99155.75
2024-03-02T06:41:57.508Z,99157.38
2024-03-02T06:43:00.851Z,99154.78
2024-03-02T06:44:03.952Z,99158.78
2024-03-02T06:45:08.705Z,99158.34
2024-03-02T06:46:16.424Z,99154.31
2024-03-02T06:47:21.677Z,99154.94
2024-03-02T06:48:26.002Z,99154.88
2024-03-02T06:49:31.844Z,99147.53
2024-03-02T06:50:35.263Z,99160.28
2024-03-02T06:51:38.433Z,99147.34
2024-03-02T06:52:41.787Z,99150.91
2024-03-02T06:53:45.027Z,99159.69
2024-03-02T06:54:48.209Z,99159.50
2024-03-02T06:55:51.366Z,99166.13
2024-03-02T06:56:55.061Z,99159.78
2024-03-02T06:58:01.639Z,99145.19
2024-03-02T06:59:05.579Z,99150.66
2024-03-02T07:00:11.785Z,99154.84
2024-03-02T07:01:17.110Z,99146.38
2024-03-02T07:02:21.293Z,99149.75
2024-03-02T07:03:25.750Z,99146.44
2024-03-02T07:04:29.032Z,99147.59
2024-03-02T07:05:33.458Z,99156.34
2024-03-02T07:06:38.538Z,99156.19
2024-03-02T07:07:41.902Z,99156.00
2024-03-02T07:08:46.807Z,99154.66
2024-03-02T07:09:50.150Z,99152.84
2024-03-02T07:10:53.590Z,99151.34
2024-03-02T07:11:56.866Z,99156.78
2024-03-02T07:13:03.759Z,99159.03
2024-03-02T07:14:07.637Z,99160.44
2024-03-02T07:15:23.006Z,99161.69
2024-03-02T07:16:31.868Z,99163.38
2024-03-02T07:17:35.436Z,99163.28
2024-03-02T07:18:43.524Z,99161.91
2024-03-02T07:19:48.971Z,99158.41
2024-03-02T07:20:53.063Z,99161.25
2024-03-02T07:21:56.346Z,99161.94
2024-03-02T07:22:59.528Z,99160.41
2024-03-02T07:24:11.256Z,99163.03
2024-03-02T07:27:29.453Z,99171.84
2024-03-02T07:28:58.027Z,99170.66
2024-03-02T07:30:01.394Z,99169.41
2024-03-02T07:31:06.311Z,99167.81
2024-03-02T07:32:11.752Z,99172.47
2024-03-02T07:33:17.548Z,99167.50
2024-03-02T07:34:20.685Z,99165.97
2024-03-02T07:35:27.910Z,99165.97
2024-03-02T07:36:38.160Z,99163.97
2024-03-02T07:37:50.166Z,99156.16
2024-03-02T07:38:53.372Z,99164.84
2024-03-02T07:39:59.671Z,99165.69
2024-03-02T07:41:05.877Z,99167.34
2024-03-02T07:42:09.604Z,99165.97
2024-03-02T07:43:13.931Z,99159.94
2024-03-02T07:44:17.920Z,99163.09
2024-03-02T07:45:21.304Z,99162.69
2024-03-02T07:46:25.666Z,99180.06
2024-03-02T07:47:29.997Z,99177.84
2024-03-02T07:48:36.140Z,99179.03
2024-03-02T07:49:39.838Z,99178.28
2024-03-02T07:50:44.365Z,99194.25
2024-03-02T07:51:47.741Z,99190.25
2024-03-02T07:52:51.384Z,99196.84
2024-03-02T07:53:54.809Z,99198.25
2024-03-02T07:54:58.625Z,99192.44
2024-03-02T07:56:04.071Z,99188.53
2024-03-02T07:57:07.262Z,99187.53
2024-03-02T07:58:12.858Z,99189.34
2024-03-02T07:59:15.937Z,99189.75
2024-03-02T08:00:19.520Z,99191.53
2024-03-02T08:01:22.993Z,99187.59
2024-03-02T08:02:26.446Z,99191.81
2024-03-02T08:03:32.093Z,99192.25
2024-03-02T08:04:38.678Z,99198.31
2024-03-02T08:05:42.130Z,99199.09
2024-03-02T08:06:46.992Z,99197.09
2024-03-02T08:07:54.015Z,99191.31
2024-03-02T08:09:02.416Z,99192.91
2024-03-02T08:10:10.045Z,99195.09
2024-03-02T08:11:19.421Z,99198.13
2024-03-02T08:12:24.901Z,99199.72
2024-03-02T08:13:28.064Z,99200.91
2024-03-02T08:14:33.067Z,99197.66
2024-03-02T08:15:36.205Z,99202.06
2024-03-02T08:16:39.875Z,99199.06
2024-03-02T08:17:50.071Z,99206.22
2024-03-02T08:18:59.389Z,99214.66
2024-03-02T08:20:04.392Z,99218.38
2024-03-02T08:21:10.103Z,99216.84
2024-03-02T08:22:14.835Z,99219.63
2024-03-02T08:23:18.762Z,99223.41
2024-03-02T08:24:21.880Z,99220.03
2024-03-02T08:25:25.680Z,99220.44
2024-03-02T08:26:33.238Z,99223.03
2024-03-02T08:27:41.225Z,99216.97
2024-03-02T08:28:44.517Z,99215.13
2024-03-02T08:29:47.926Z,99233.59
2024-03-02T08:30:52.609Z,99223.94
2024-03-02T08:31:57.521Z,99227.72
2024-03-02T08:33:02.061Z,99226.09
2024-03-02T08:34:05.660Z,99225.28
2024-03-02T08:35:09.159Z,99223.53
2024-03-02T08:36:14.295Z,99226.38
2024-03-02T08:37:18.581Z,99227.19
2024-03-02T08:38:22.681Z,99231.22
2024-03-02T08:39:26.765Z,99228.03
2024-03-02T08:40:31.741Z,99235.84
2024-03-02T08:41:38.978Z,99240.44
2024-03-02T08:42:42.761Z,99239.44
2024-03-02T08:43:45.949Z,99235.47
2024-03-02T08:44:49.464Z,99240.22
2024-03-02T08:45:52.599Z,99236.47
2024-03-02T08:46:58.805Z,99229.63
2024-03-02T08:48:02.333Z,99243.69
2024-03-02T08:49:08.981Z,99242.06
2024-03-02T08:50:12.450Z,99236.31
2024-03-02T08:51:17.975Z,99243.31
2024-03-02T08:52:21.538Z,99243.72
2024-03-02T08:53:24.671Z,99242.97
2024-03-02T08:54:27.878Z,99243.16
2024-03-02T08:55:33.459Z,99239.16
2024-03-02T08:56:39.775Z,99236.75
2024-03-02T08:57:43.837Z,99240.00
2024-03-02T08:58:47.105Z,99233.19
2024-03-02T08:59:51.753Z,99233.06
2024-03-02T09:00:54.982Z,99235.03
2024-03-02T09:02:02.723Z,99234.63
2024-03-02T09:03:06.837Z,99241.69
2024-03-02T09:04:14.032Z,99236.03
2024-03-02T09:05:17.821Z,99240.03
2024-03-02T09:06:22.990Z,99242.63
2024-03-02T09:07:27.578Z,99247.81
2024-03-02T09:08:31.361Z,99256.97
2024-03-02T09:09:34.699Z,99252.31
2024-03-02T09:10:40.612Z,99258.88
2024-03-02T09:11:44.368Z,99254.84
2024-03-02T09:12:47.827Z,99262.28
2024-03-02T09:13:52.773Z,99254.44
2024-03-02T09:14:56.237Z,99254.22
2024-03-02T09:15:59.576Z,99257.22
2024-03-02T09:17:03.762Z,99260.78
2024-03-02T09:18:10.934Z,99261.38
2024-03-02T09:19:14.519Z,99257.03
2024-03-02T09:20:18.797Z,99261.66
2024-03-02T09:21:23.114Z,99266.84
2024-03-02T09:22:28.085Z,99259.78
2024-03-02T09:23:31.256Z,99257.72
2024-03-02T09:24:37.698Z,99262.44
2024-03-02T09:25:41.666Z,99268.28
2024-03-02T09:26:47.862Z,99263.06
2024-03-02T09:27:51.264Z,99265.84
2024-03-02T09:28:54.694Z,99261.41
2024-03-02T09:29:58.055Z,99273.41
2024-03-02T09:31:26.357Z,99270.50
2024-03-02T09:32:32.102Z,99269.09
2024-03-02T09:33:36.602Z,99268.25
2024-03-02T09:34:41.952Z,99273.66
2024-03-02T09:35:54.290Z,99271.69
2024-03-02T09:36:58.476Z,99272.31
2024-03-02T09:38:01.828Z,99271.91
2024-03-02T09:39:05.531Z,99269.38
2024-03-02T09:40:10.440Z,99278.03
2024-03-02T09:41:15.944Z,99277.13
2024-03-02T09:42:19.950Z,99269.69
2024-03-02T09:43:26.043Z,99282.19
2024-03-02T09:44:31.228Z,99277.78
2024-03-02T09:45:35.697Z,99278.78
2024-03-02T09:46:41.015Z,99288.72
2024-03-02T09:47:48.916Z,99284.09
2024-03-02T09:48:52.405Z,99279.09
2024-03-02T09:49:57.258Z,99278.88
2024-03-02T09:51:05.088Z,99282.38
2024-03-02T09:52:10.069Z,99277.38
2024-03-02T09:53:16.746Z,99274.38
2024-03-02T09:54:22.957Z,99275.97
2024-03-02T09:55:26.955Z,99276.63
2024-03-02T09:56:31.187Z,99277.06
2024-03-02T09:57:34.468Z,99280.69
2024-03-02T09:58:40.506Z,99275.69
2024-03-02T09:59:43.772Z,99275.88
2024-03-02T10:00:46.976Z,99276.09
2024-03-02T10:02:04.274Z,99278.53
2024-03-02T10:03:15.731Z,99275.53
2024-03-02T10:04:22.518Z,99283.53
2024-03-02T10:05:30.115Z,99278.38
2024-03-02T10:06:37.606Z,99278.47
2024-03-02T10:08:05.208Z,99276.88
2024-03-02T10:09:09.464Z,99272.47
2024-03-02T10:10:17.169Z,99271.69
2024-03-02T10:11:32.153Z,99269.94
2024-03-02T10:12:35.572Z,99268.59
2024-03-02T10:13:39.544Z,99277.81
2024-03-02T10:14:44.079Z,99267.63
2024-03-02T10:15:48.071Z,99266.88
2024-03-02T10:16:51.267Z,99271.06
2024-03-02T10:17:54.817Z,99264.63
2024-03-02T10:18:59.262Z,99261.47
2024-03-02T10:20:26.442Z,99251.06
2024-03-02T10:21:30.603Z,99257.31
2024-03-02T10:22:34.544Z,99247.75
2024-03-02T10:23:38.170Z,99252.09
2024-03-02T10:24:46.511Z,99255.50
2024-03-02T10:25:55.270Z,99252.91
2024-03-02T10:27:01.547Z,99257.13
2024-03-02T10:28:07.616Z,99249.50
2024-03-02T10:29:13.318Z,99239.81
2024-03-02T10:30:18.202Z,99242.44
2024-03-02T10:31:28.323Z,99241.66
2024-03-02T10:32:31.981Z,99235.22
2024-03-02T10:33:35.366Z,99240.84
2024-03-02T10:34:41.369Z,99240.84
2024-03-02T10:35:50.779Z,99246.28
2024-03-02T10:36:56.163Z,99240.28
2024-03-02T10:38:01.825Z,99245.25
2024-03-02T10:39:06.247Z,99240.84
2024-03-02T10:40:16.921Z,99238.28
2024-03-02T10:41:20.195Z,99232.03
2024-03-02T10:42:24.728Z,99243.31
2024-03-02T10:43:28.666Z,99236.03
2024-03-02T10:44:35.580Z,99237.91
2024-03-02T10:45:40.356Z,99238.13
2024-03-02T10:46:46.941Z,99238.56
2024-03-02T10:47:51.390Z,99241.72
2024-03-02T10:48:54.678Z,99248.16
2024-03-02T10:50:00.577Z,99243.13
2024-03-02T10:51:03.946Z,99238.47
2024-03-02T10:52:07.407Z,99242.34
2024-03-02T10:53:13.511Z,99238.91
2024-03-02T10:54:20.414Z,99235.50
2024-03-02T10:55:24.174Z,99238.91
2024-03-02T10:56:30.885Z,99240.28
2024-03-02T10:57:55.298Z,99242.66
2024-03-02T10:59:27.623Z,99233.44
2024-03-02T11:00:38.470Z,99236.09
2024-03-02T11:01:45.001Z,99234.72
2024-03-02T11:02:53.517Z,99231.91
2024-03-02T11:04:04.015Z,99225.69
2024-03-02T11:05:12.330Z,99234.53
2024-03-02T11:06:15.667Z,99225.69
2024-03-02T11:07:24.991Z,99227.34
2024-03-02T11:08:30.673Z,99219.72
2024-03-02T11:09:46.305Z,99220.13
2024-03-02T11:10:59.925Z,99221.31
2024-03-02T11:12:45.701Z,99222.13
2024-03-02T11:13:51.956Z,99214.72
2024-03-02T11:14:57.537Z,99212.13
2024-03-02T11:16:13.494Z,99211.13
2024-03-02T11:17:21.762Z,99206.72
2024-03-02T11:18:27.254Z,99204.13
2024-03-02T11:19:33.839Z,99215.16
2024-03-02T11:20:51.408Z,99209.13
2024-03-02T11:21:55.560Z,99217.38
2024-03-02T11:22:58.782Z,99215.56
2024-03-02T11:24:03.711Z,99212.56
2024-03-02T11:25:28.968Z,99208.56
2024-03-02T11:26:42.408Z,99209.97
2024-03-02T11:27:54.829Z,99201.13
2024-03-02T11:28:59.768Z,99205.53
2024-03-02T11:30:08.382Z,99206.13
2024-03-02T11:31:16.719Z,99217.34
2024-03-02T11:32:25.077Z,99213.38
2024-03-02T11:33:30.983Z,99220.56
2024-03-02T11:34:40.664Z,99214.19
2024-03-02T11:35:48.852Z,99219.56
2024-03-02T11:36:52.925Z,99215.78
2024-03-02T11:37:56.552Z,99217.97
2024-03-02T11:39:00.757Z,99214.56
2024-03-02T11:40:04.476Z,99208.34
2024-03-02T11:41:10.813Z,99212.97
2024-03-02T11:42:16.009Z,99209.56
2024-03-02T11:43:21.804Z,99214.34
2024-03-02T11:44:31.042Z,99211.56
2024-03-02T11:45:35.147Z,99220.41
2024-03-02T11:46:41.544Z,99218.19
2024-03-02T11:48:14.896Z,99212.75
2024-03-02T11:49:44.457Z,99210.94
2024-03-02T11:50:52.802Z,99217.81
2024-03-02T11:52:03.544Z,99212.16
2024-03-02T11:53:12.020Z,99211.56
2024-03-02T11:54:16.294Z,99208.75
2024-03-02T11:55:24.286Z,99213.38
2024-03-02T11:56:32.896Z,99205.34
2024-03-02T11:57:43.111Z,99200.75
2024-03-02T11:59:11.200Z,99206.38
2024-03-02T12:00:21.734Z,99200.34
2024-03-02T12:01:25.659Z,99204.56
2024-03-02T12:02:29.075Z,99215.16
2024-03-02T12:03:37.496Z,99211.56
2024-03-02T12:04:43.476Z,99210.34
2024-03-02T12:05:53.650Z,99210.94
2024-03-02T12:07:01.847Z,99213.97
2024-03-02T12:08:07.747Z,99218.59
2024-03-02T12:09:16.093Z,99213.16
2024-03-02T12:10:20.277Z,99220.78
2024-03-02T12:11:23.638Z,99205.31
2024-03-02T12:12:31.016Z,99215.75
2024-03-02T12:13:36.298Z,99204.28
2024-03-02T12:14:42.475Z,99221.19
2024-03-02T12:15:46.058Z,99222.34
2024-03-02T12:16:50.534Z,99222.34
2024-03-02T12:18:12.573Z,99229.97
2024-03-02T12:19:19.118Z,99223.97
2024-03-02T12:20:22.533Z,99222.16
2024-03-02T12:21:25.700Z,99221.00
2024-03-02T12:22:32.827Z,99223.19
2024-03-02T12:23:36.800Z,99221.56
2024-03-02T12:24:40.805Z,99217.16
2024-03-02T12:25:44.646Z,99219.75
2024-03-02T12:26:52.684Z,99224.75
2024-03-02T12:28:00.331Z,99220.75
2024-03-02T12:29:03.912Z,99221.56
2024-03-02T12:30:12.176Z,99217.13
2024-03-02T12:31:16.589Z,99215.13
2024-03-02T12:32:20.969Z,99220.97
2024-03-02T12:33:28.947Z,99214.56
2024-03-02T12:34:33.040Z,99220.38
2024-03-02T12:35:38.603Z,99211.56
2024-03-02T12:36:43.112Z,99211.75
2024-03-02T12:37:48.221Z,99210.34
2024-03-02T12:38:54.805Z,99203.75
2024-03-02T12:39:58.221Z,99206.34
2024-03-02T12:41:01.491Z,99203.91
2024-03-02T12:42:04.659Z,99209.56
2024-03-02T12:43:10.943Z,99205.72
2024-03-02T12:44:14.635Z,99207.53
2024-03-02T12:45:25.942Z,99218.56
2024-03-02T12:46:29.659Z,99209.56
2024-03-02T12:47:33.719Z,99210.34
2024-03-02T12:48:37.599Z,99210.78
2024-03-02T12:49:44.584Z,99213.56
2024-03-02T12:50:48.053Z,99213.97
2024-03-02T12:51:55.063Z,99207.16
2024-03-02T12:52:58.978Z,99213.75
2024-03-02T12:54:06.604Z,99214.34
2024-03-02T12:55:13.644Z,99217.16
2024-03-02T12:56:22.668Z,99218.38